sensor_id;sensor_type;location;lat;lon;timestamp;temperature;humidity
12438;DHT22;6283;51.330;12.374;2024-01-07T00:02:08;1.60;99.90
12438;DHT22;6283;51.330;12.374;2024-01-07T00:04:34;1.80;99.90
12438;DHT22;6283;51.330;12.374;2024-01-07T00:07:00;1.70;99.90
12438;DHT22;6283;51.330;12.374;2024-01-07T00:09:25;1.70;99.90
12438;DHT22;6283;51.330;12.374;2024-01-07T00:11:51;1.90;99.90
12438;DHT22;6283;51.330;12.374;2024-01-07T00:14:17;1.80;99.90
12438;DHT22;6283;51.330;12.374;2024-01-07T00:16:42;1.80;99.90
12438;DHT22;6283;51.330;12.374;2024-01-07T00:19:08;1.80;99.90
12438;DHT22;6283;51.330;12.374;2024-01-07T00:21:34;1.70;99.90
12438;DHT22;6283;51.330;12.374;2024-01-07T00:24:00;1.80;99.90
12438;DHT22;6283;51.330;12.374;2024-01-07T00:26:25;1.80;99.90
12438;DHT22;6283;51.330;12.374;2024-01-07T00:28:51;1.80;99.90
12438;DHT22;6283;51.330;12.374;2024-01-07T00:31:16;1.80;99.90
12438;DHT22;6283;51.330;12.374;2024-01-07T00:33:42;1.70;99.90
12438;DHT22;6283;51.330;12.374;2024-01-07T00:36:08;1.80;99.90
12438;DHT22;6283;51.330;12.374;2024-01-07T00:38:33;1.70;99.90
12438;DHT22;6283;51.330;12.374;2024-01-07T00:40:59;1.70;99.90
12438;DHT22;6283;51.330;12.374;2024-01-07T00:43:25;1.80;99.90
12438;DHT22;6283;51.330;12.374;2024-01-07T00:45:50;1.80;99.90
12438;DHT22;6283;51.330;12.374;2024-01-07T00:48:16;1.70;93.30
12438;DHT22;6283;51.330;12.374;2024-01-07T00:50:42;1.80;54.60
12438;DHT22;6283;51.330;12.374;2024-01-07T00:53:08;1.70;35.80
12438;DHT22;6283;51.330;12.374;2024-01-07T00:55:34;1.70;30.20
12438;DHT22;6283;51.330;12.374;2024-01-07T00:58:03;1.80;32.60
12438;DHT22;6283;51.330;12.374;2024-01-07T01:00:28;1.50;25.00
12438;DHT22;6283;51.330;12.374;2024-01-07T01:02:55;1.70;28.90
12438;DHT22;6283;51.330;12.374;2024-01-07T01:05:20;1.60;31.80
12438;DHT22;6283;51.330;12.374;2024-01-07T01:07:46;1.60;12.60
12438;DHT22;6283;51.330;12.374;2024-01-07T01:10:12;1.60;1.00
12438;DHT22;6283;51.330;12.374;2024-01-07T01:12:40;1.70;1.00
12438;DHT22;6283;51.330;12.374;2024-01-07T01:15:06;1.50;1.00
12438;DHT22;6283;51.330;12.374;2024-01-07T01:17:31;1.80;1.00
12438;DHT22;6283;51.330;12.374;2024-01-07T01:19:57;1.40;1.00
12438;DHT22;6283;51.330;12.374;2024-01-07T01:22:23;1.70;1.00
12438;DHT22;6283;51.330;12.374;2024-01-07T01:24:48;1.70;1.00
12438;DHT22;6283;51.330;12.374;2024-01-07T01:27:14;1.80;1.00
12438;DHT22;6283;51.330;12.374;2024-01-07T01:29:44;1.70;1.00
12438;DHT22;6283;51.330;12.374;2024-01-07T01:32:09;1.80;1.00
12438;DHT22;6283;51.330;12.374;2024-01-07T01:34:36;1.70;1.00
12438;DHT22;6283;51.330;12.374;2024-01-07T01:37:01;1.70;1.00
12438;DHT22;6283;51.330;12.374;2024-01-07T01:39:29;1.80;1.00
12438;DHT22;6283;51.330;12.374;2024-01-07T01:41:55;1.80;1.00
12438;DHT22;6283;51.330;12.374;2024-01-07T01:44:21;1.80;1.00
12438;DHT22;6283;51.330;12.374;2024-01-07T01:46:50;1.70;1.00
12438;DHT22;6283;51.330;12.374;2024-01-07T01:49:16;1.70;1.00
12438;DHT22;6283;51.330;12.374;2024-01-07T01:51:42;1.90;1.00
12438;DHT22;6283;51.330;12.374;2024-01-07T01:54:08;1.70;1.00
12438;DHT22;6283;51.330;12.374;2024-01-07T01:56:34;1.80;1.00
12438;DHT22;6283;51.330;12.374;2024-01-07T01:58:59;1.80;1.00
12438;DHT22;6283;51.330;12.374;2024-01-07T02:01:25;1.80;1.00
12438;DHT22;6283;51.330;12.374;2024-01-07T02:03:51;1.50;1.00
12438;DHT22;6283;51.330;12.374;2024-01-07T02:06:20;1.50;1.00
12438;DHT22;6283;51.330;12.374;2024-01-07T02:08:47;1.80;1.00
12438;DHT22;6283;51.330;12.374;2024-01-07T02:11:21;1.80;1.00
12438;DHT22;6283;51.330;12.374;2024-01-07T02:13:47;1.50;1.00
12438;DHT22;6283;51.330;12.374;2024-01-07T02:16:14;1.30;1.00
12438;DHT22;6283;51.330;12.374;2024-01-07T02:18:41;1.70;1.00
12438;DHT22;6283;51.330;12.374;2024-01-07T02:21:08;1.60;1.00
12438;DHT22;6283;51.330;12.374;2024-01-07T02:23:34;1.50;1.00
12438;DHT22;6283;51.330;12.374;2024-01-07T02:26:00;1.70;1.00
12438;DHT22;6283;51.330;12.374;2024-01-07T02:28:25;1.60;1.00
12438;DHT22;6283;51.330;12.374;2024-01-07T02:30:51;1.50;1.00
12438;DHT22;6283;51.330;12.374;2024-01-07T02:33:16;1.70;1.00
12438;DHT22;6283;51.330;12.374;2024-01-07T02:35:42;1.70;1.00
12438;DHT22;6283;51.330;12.374;2024-01-07T02:38:11;1.70;1.00
12438;DHT22;6283;51.330;12.374;2024-01-07T02:40:36;1.50;1.00
12438;DHT22;6283;51.330;12.374;2024-01-07T02:43:02;1.30;1.00
12438;DHT22;6283;51.330;12.374;2024-01-07T02:45:27;1.30;1.00
12438;DHT22;6283;51.330;12.374;2024-01-07T02:47:53;1.40;1.00
12438;DHT22;6283;51.330;12.374;2024-01-07T02:50:19;1.70;1.00
12438;DHT22;6283;51.330;12.374;2024-01-07T02:52:44;1.60;1.00
12438;DHT22;6283;51.330;12.374;2024-01-07T02:55:10;1.40;1.00
12438;DHT22;6283;51.330;12.374;2024-01-07T02:57:35;1.80;1.00
12438;DHT22;6283;51.330;12.374;2024-01-07T03:00:01;1.40;1.00
12438;DHT22;6283;51.330;12.374;2024-01-07T03:02:28;1.60;1.00
12438;DHT22;6283;51.330;12.374;2024-01-07T03:04:53;1.70;1.00
12438;DHT22;6283;51.330;12.374;2024-01-07T03:07:19;1.70;1.00
12438;DHT22;6283;51.330;12.374;2024-01-07T03:09:44;1.40;1.00
12438;DHT22;6283;51.330;12.374;2024-01-07T03:12:10;1.40;1.00
12438;DHT22;6283;51.330;12.374;2024-01-07T03:14:35;1.40;1.00
12438;DHT22;6283;51.330;12.374;2024-01-07T03:17:02;1.40;1.00
12438;DHT22;6283;51.330;12.374;2024-01-07T03:19:28;1.40;1.00
12438;DHT22;6283;51.330;12.374;2024-01-07T03:21:53;1.40;1.00
12438;DHT22;6283;51.330;12.374;2024-01-07T03:24:19;1.30;1.00
12438;DHT22;6283;51.330;12.374;2024-01-07T03:26:45;1.50;1.00
12438;DHT22;6283;51.330;12.374;2024-01-07T03:29:10;1.50;1.00
12438;DHT22;6283;51.330;12.374;2024-01-07T03:31:36;1.60;1.00
12438;DHT22;6283;51.330;12.374;2024-01-07T03:34:01;1.30;1.00
12438;DHT22;6283;51.330;12.374;2024-01-07T03:36:27;1.60;1.00
12438;DHT22;6283;51.330;12.374;2024-01-07T03:38:52;1.50;1.00
12438;DHT22;6283;51.330;12.374;2024-01-07T03:41:20;1.40;1.00
12438;DHT22;6283;51.330;12.374;2024-01-07T03:43:47;1.30;1.00
12438;DHT22;6283;51.330;12.374;2024-01-07T03:46:13;1.40;1.00
12438;DHT22;6283;51.330;12.374;2024-01-07T03:48:39;1.30;1.00
12438;DHT22;6283;51.330;12.374;2024-01-07T03:51:05;1.30;1.00
12438;DHT22;6283;51.330;12.374;2024-01-07T03:53:31;1.20;1.00
12438;DHT22;6283;51.330;12.374;2024-01-07T03:55:56;1.30;1.00
12438;DHT22;6283;51.330;12.374;2024-01-07T03:58:22;1.00;1.00
12438;DHT22;6283;51.330;12.374;2024-01-07T04:00:47;1.10;1.00
12438;DHT22;6283;51.330;12.374;2024-01-07T04:03:13;1.20;1.00
12438;DHT22;6283;51.330;12.374;2024-01-07T04:05:38;1.30;1.00
12438;DHT22;6283;51.330;12.374;2024-01-07T04:08:05;1.10;1.00
12438;DHT22;6283;51.330;12.374;2024-01-07T04:10:31;1.20;1.00
12438;DHT22;6283;51.330;12.374;2024-01-07T04:12:56;1.10;1.00
12438;DHT22;6283;51.330;12.374;2024-01-07T04:15:22;1.00;1.00
12438;DHT22;6283;51.330;12.374;2024-01-07T04:17:48;1.00;1.00
12438;DHT22;6283;51.330;12.374;2024-01-07T04:20:14;1.00;1.00
12438;DHT22;6283;51.330;12.374;2024-01-07T04:22:40;1.10;1.00
12438;DHT22;6283;51.330;12.374;2024-01-07T04:25:06;1.00;1.00
12438;DHT22;6283;51.330;12.374;2024-01-07T04:27:36;1.00;1.00
12438;DHT22;6283;51.330;12.374;2024-01-07T04:30:02;1.10;1.00
12438;DHT22;6283;51.330;12.374;2024-01-07T04:32:28;0.90;1.00
12438;DHT22;6283;51.330;12.374;2024-01-07T04:34:53;1.00;1.00
12438;DHT22;6283;51.330;12.374;2024-01-07T04:37:19;1.10;1.00
12438;DHT22;6283;51.330;12.374;2024-01-07T04:39:45;1.10;1.00
12438;DHT22;6283;51.330;12.374;2024-01-07T04:42:10;1.00;1.00
12438;DHT22;6283;51.330;12.374;2024-01-07T04:44:36;0.90;1.00
12438;DHT22;6283;51.330;12.374;2024-01-07T04:47:01;1.00;1.00
12438;DHT22;6283;51.330;12.374;2024-01-07T04:49:27;1.00;1.00
12438;DHT22;6283;51.330;12.374;2024-01-07T04:51:53;1.00;1.00
12438;DHT22;6283;51.330;12.374;2024-01-07T04:54:18;1.00;1.00
12438;DHT22;6283;51.330;12.374;2024-01-07T04:56:44;1.00;1.00
12438;DHT22;6283;51.330;12.374;2024-01-07T04:59:10;1.20;1.00
12438;DHT22;6283;51.330;12.374;2024-01-07T05:01:35;1.00;1.00
12438;DHT22;6283;51.330;12.374;2024-01-07T05:04:02;1.10;1.00
12438;DHT22;6283;51.330;12.374;2024-01-07T05:06:27;1.00;1.00
12438;DHT22;6283;51.330;12.374;2024-01-07T05:08:53;1.00;1.00
12438;DHT22;6283;51.330;12.374;2024-01-07T05:11:19;0.90;1.00
12438;DHT22;6283;51.330;12.374;2024-01-07T05:13:44;1.00;1.00
12438;DHT22;6283;51.330;12.374;2024-01-07T05:16:18;0.90;1.00
12438;DHT22;6283;51.330;12.374;2024-01-07T05:18:44;0.80;1.00
12438;DHT22;6283;51.330;12.374;2024-01-07T05:21:14;0.90;1.00
12438;DHT22;6283;51.330;12.374;2024-01-07T05:23:40;0.80;1.00
12438;DHT22;6283;51.330;12.374;2024-01-07T05:26:06;1.00;1.00
12438;DHT22;6283;51.330;12.374;2024-01-07T05:28:31;0.80;1.00
12438;DHT22;6283;51.330;12.374;2024-01-07T05:30:57;0.80;1.00
12438;DHT22;6283;51.330;12.374;2024-01-07T05:33:22;0.80;1.00
12438;DHT22;6283;51.330;12.374;2024-01-07T05:35:48;0.80;1.00
12438;DHT22;6283;51.330;12.374;2024-01-07T05:38:14;0.80;1.00
12438;DHT22;6283;51.330;12.374;2024-01-07T05:40:39;0.70;1.00
12438;DHT22;6283;51.330;12.374;2024-01-07T05:43:05;0.70;1.00
12438;DHT22;6283;51.330;12.374;2024-01-07T05:45:30;0.70;1.00
12438;DHT22;6283;51.330;12.374;2024-01-07T05:47:56;0.80;1.00
12438;DHT22;6283;51.330;12.374;2024-01-07T05:50:22;0.80;1.00
12438;DHT22;6283;51.330;12.374;2024-01-07T05:52:47;0.90;1.00
12438;DHT22;6283;51.330;12.374;2024-01-07T05:55:13;0.90;1.00
12438;DHT22;6283;51.330;12.374;2024-01-07T05:57:39;0.90;1.00
12438;DHT22;6283;51.330;12.374;2024-01-07T06:00:05;0.60;1.00
12438;DHT22;6283;51.330;12.374;2024-01-07T06:02:31;0.90;1.00
12438;DHT22;6283;51.330;12.374;2024-01-07T06:04:56;0.70;1.00
12438;DHT22;6283;51.330;12.374;2024-01-07T06:07:22;0.70;1.00
12438;DHT22;6283;51.330;12.374;2024-01-07T06:09:48;0.70;1.00
12438;DHT22;6283;51.330;12.374;2024-01-07T06:12:13;0.60;1.00
12438;DHT22;6283;51.330;12.374;2024-01-07T06:14:39;0.80;1.00
12438;DHT22;6283;51.330;12.374;2024-01-07T06:17:05;0.70;1.00
12438;DHT22;6283;51.330;12.374;2024-01-07T06:19:30;1.00;1.00
12438;DHT22;6283;51.330;12.374;2024-01-07T06:21:56;0.70;1.00
12438;DHT22;6283;51.330;12.374;2024-01-07T06:24:22;0.90;1.00
12438;DHT22;6283;51.330;12.374;2024-01-07T06:26:47;0.70;1.00
12438;DHT22;6283;51.330;12.374;2024-01-07T06:29:13;1.00;1.00
12438;DHT22;6283;51.330;12.374;2024-01-07T06:31:45;0.60;1.00
12438;DHT22;6283;51.330;12.374;2024-01-07T06:34:11;0.80;1.00
12438;DHT22;6283;51.330;12.374;2024-01-07T06:36:39;0.70;1.00
12438;DHT22;6283;51.330;12.374;2024-01-07T06:39:05;0.70;1.00
12438;DHT22;6283;51.330;12.374;2024-01-07T06:41:31;0.70;1.00
12438;DHT22;6283;51.330;12.374;2024-01-07T06:43:57;0.70;1.00
12438;DHT22;6283;51.330;12.374;2024-01-07T06:46:22;0.60;1.00
12438;DHT22;6283;51.330;12.374;2024-01-07T06:48:48;0.70;1.00
12438;DHT22;6283;51.330;12.374;2024-01-07T06:51:14;0.70;1.00
12438;DHT22;6283;51.330;12.374;2024-01-07T06:53:40;0.80;1.00
12438;DHT22;6283;51.330;12.374;2024-01-07T06:56:06;0.70;1.00
12438;DHT22;6283;51.330;12.374;2024-01-07T06:58:32;0.70;1.00
12438;DHT22;6283;51.330;12.374;2024-01-07T07:00:58;0.90;1.00
12438;DHT22;6283;51.330;12.374;2024-01-07T07:03:23;0.80;1.00
12438;DHT22;6283;51.330;12.374;2024-01-07T07:05:49;0.50;1.00
12438;DHT22;6283;51.330;12.374;2024-01-07T07:08:15;0.60;1.00
12438;DHT22;6283;51.330;12.374;2024-01-07T07:10:40;0.50;1.00
12438;DHT22;6283;51.330;12.374;2024-01-07T07:13:06;0.80;1.00
12438;DHT22;6283;51.330;12.374;2024-01-07T07:15:31;0.60;1.00
12438;DHT22;6283;51.330;12.374;2024-01-07T07:17:57;0.50;1.00
12438;DHT22;6283;51.330;12.374;2024-01-07T07:20:23;0.60;1.00
12438;DHT22;6283;51.330;12.374;2024-01-07T07:22:48;0.50;1.00
12438;DHT22;6283;51.330;12.374;2024-01-07T07:25:14;0.40;1.00
12438;DHT22;6283;51.330;12.374;2024-01-07T07:27:39;0.40;1.00
12438;DHT22;6283;51.330;12.374;2024-01-07T07:30:06;0.50;1.00
12438;DHT22;6283;51.330;12.374;2024-01-07T07:32:32;0.50;1.00
12438;DHT22;6283;51.330;12.374;2024-01-07T07:34:59;0.40;1.00
12438;DHT22;6283;51.330;12.374;2024-01-07T07:37:25;0.40;1.00
12438;DHT22;6283;51.330;12.374;2024-01-07T07:39:50;0.40;1.00
12438;DHT22;6283;51.330;12.374;2024-01-07T07:42:16;0.40;1.00
12438;DHT22;6283;51.330;12.374;2024-01-07T07:44:42;0.30;1.00
12438;DHT22;6283;51.330;12.374;2024-01-07T07:47:08;0.20;1.00
12438;DHT22;6283;51.330;12.374;2024-01-07T07:49:37;0.20;1.00
12438;DHT22;6283;51.330;12.374;2024-01-07T07:52:06;0.20;1.00
12438;DHT22;6283;51.330;12.374;2024-01-07T07:54:31;0.20;1.00
12438;DHT22;6283;51.330;12.374;2024-01-07T07:56:57;0.20;1.00
12438;DHT22;6283;51.330;12.374;2024-01-07T07:59:23;0.10;1.00
12438;DHT22;6283;51.330;12.374;2024-01-07T08:01:49;0.20;1.00
12438;DHT22;6283;51.330;12.374;2024-01-07T08:04:15;0.10;1.00
12438;DHT22;6283;51.330;12.374;2024-01-07T08:06:41;0.30;1.00
12438;DHT22;6283;51.330;12.374;2024-01-07T08:09:08;0.10;1.00
12438;DHT22;6283;51.330;12.374;2024-01-07T08:11:34;0.20;1.00
12438;DHT22;6283;51.330;12.374;2024-01-07T08:13:59;0.00;1.00
12438;DHT22;6283;51.330;12.374;2024-01-07T08:16:27;0.00;1.00
12438;DHT22;6283;51.330;12.374;2024-01-07T08:18:52;0.10;1.00
12438;DHT22;6283;51.330;12.374;2024-01-07T08:21:22;0.10;1.00
12438;DHT22;6283;51.330;12.374;2024-01-07T08:23:48;0.10;1.00
12438;DHT22;6283;51.330;12.374;2024-01-07T08:26:20;0.10;1.00
12438;DHT22;6283;51.330;12.374;2024-01-07T08:28:46;0.10;1.00
12438;DHT22;6283;51.330;12.374;2024-01-07T08:31:11;0.10;1.00
12438;DHT22;6283;51.330;12.374;2024-01-07T08:33:37;0.20;1.00
12438;DHT22;6283;51.330;12.374;2024-01-07T08:36:03;0.00;1.00
12438;DHT22;6283;51.330;12.374;2024-01-07T08:38:30;0.20;1.00
12438;DHT22;6283;51.330;12.374;2024-01-07T08:40:55;0.00;1.00
12438;DHT22;6283;51.330;12.374;2024-01-07T08:43:21;0.00;1.00
12438;DHT22;6283;51.330;12.374;2024-01-07T08:45:46;0.30;1.00
12438;DHT22;6283;51.330;12.374;2024-01-07T08:48:12;0.00;1.00
12438;DHT22;6283;51.330;12.374;2024-01-07T08:50:38;0.00;1.00
12438;DHT22;6283;51.330;12.374;2024-01-07T08:53:04;-0.10;1.00
12438;DHT22;6283;51.330;12.374;2024-01-07T08:55:30;-0.10;1.00
12438;DHT22;6283;51.330;12.374;2024-01-07T08:57:57;0.00;1.00
12438;DHT22;6283;51.330;12.374;2024-01-07T09:00:22;0.00;1.00
12438;DHT22;6283;51.330;12.374;2024-01-07T09:02:52;-0.20;1.00
12438;DHT22;6283;51.330;12.374;2024-01-07T09:05:18;0.00;1.00
12438;DHT22;6283;51.330;12.374;2024-01-07T09:07:43;0.20;1.00
12438;DHT22;6283;51.330;12.374;2024-01-07T09:10:09;0.20;1.00
12438;DHT22;6283;51.330;12.374;2024-01-07T09:12:39;0.10;1.00
12438;DHT22;6283;51.330;12.374;2024-01-07T09:15:05;0.00;1.00
12438;DHT22;6283;51.330;12.374;2024-01-07T09:17:36;0.10;1.00
12438;DHT22;6283;51.330;12.374;2024-01-07T09:20:04;0.10;1.00
12438;DHT22;6283;51.330;12.374;2024-01-07T09:22:33;0.20;1.00
12438;DHT22;6283;51.330;12.374;2024-01-07T09:25:01;0.00;1.00
12438;DHT22;6283;51.330;12.374;2024-01-07T09:27:27;-0.10;1.00
12438;DHT22;6283;51.330;12.374;2024-01-07T09:29:52;0.00;1.00
12438;DHT22;6283;51.330;12.374;2024-01-07T09:32:18;0.00;1.00
12438;DHT22;6283;51.330;12.374;2024-01-07T09:34:43;0.30;1.00
12438;DHT22;6283;51.330;12.374;2024-01-07T09:37:09;0.20;1.00
12438;DHT22;6283;51.330;12.374;2024-01-07T09:39:41;0.20;1.00
12438;DHT22;6283;51.330;12.374;2024-01-07T09:42:16;0.10;1.00
12438;DHT22;6283;51.330;12.374;2024-01-07T09:44:42;0.00;1.00
12438;DHT22;6283;51.330;12.374;2024-01-07T09:47:12;-0.10;1.00
12438;DHT22;6283;51.330;12.374;2024-01-07T09:49:39;0.00;1.00
12438;DHT22;6283;51.330;12.374;2024-01-07T09:52:07;-0.20;1.00
12438;DHT22;6283;51.330;12.374;2024-01-07T09:54:33;0.20;1.00
12438;DHT22;6283;51.330;12.374;2024-01-07T09:57:04;0.20;1.00
12438;DHT22;6283;51.330;12.374;2024-01-07T09:59:36;0.10;1.00
12438;DHT22;6283;51.330;12.374;2024-01-07T10:02:02;0.20;1.00
12438;DHT22;6283;51.330;12.374;2024-01-07T10:04:29;0.00;1.00
12438;DHT22;6283;51.330;12.374;2024-01-07T10:06:55;-0.10;1.00
12438;DHT22;6283;51.330;12.374;2024-01-07T10:09:29;0.10;1.00
12438;DHT22;6283;51.330;12.374;2024-01-07T10:11:55;0.20;1.00
12438;DHT22;6283;51.330;12.374;2024-01-07T10:14:20;0.10;1.00
12438;DHT22;6283;51.330;12.374;2024-01-07T10:16:51;0.30;1.00
12438;DHT22;6283;51.330;12.374;2024-01-07T10:19:24;0.20;1.00
12438;DHT22;6283;51.330;12.374;2024-01-07T10:22:05;0.10;1.00
12438;DHT22;6283;51.330;12.374;2024-01-07T10:24:40;0.40;1.00
12438;DHT22;6283;51.330;12.374;2024-01-07T10:27:07;0.50;1.00
12438;DHT22;6283;51.330;12.374;2024-01-07T10:29:33;0.20;1.00
12438;DHT22;6283;51.330;12.374;2024-01-07T10:31:59;0.40;1.00
12438;DHT22;6283;51.330;12.374;2024-01-07T10:34:30;0.50;1.00
12438;DHT22;6283;51.330;12.374;2024-01-07T10:36:59;0.20;1.00
12438;DHT22;6283;51.330;12.374;2024-01-07T10:39:25;0.30;1.00
12438;DHT22;6283;51.330;12.374;2024-01-07T10:41:52;0.40;1.00
12438;DHT22;6283;51.330;12.374;2024-01-07T10:44:41;0.70;1.00
12438;DHT22;6283;51.330;12.374;2024-01-07T10:47:07;0.70;1.00
12438;DHT22;6283;51.330;12.374;2024-01-07T10:49:36;0.60;1.00
12438;DHT22;6283;51.330;12.374;2024-01-07T10:52:04;0.60;1.00
12438;DHT22;6283;51.330;12.374;2024-01-07T10:54:31;0.70;1.00
12438;DHT22;6283;51.330;12.374;2024-01-07T10:59:32;0.70;1.00
12438;DHT22;6283;51.330;12.374;2024-01-07T11:01:59;0.80;1.00
12438;DHT22;6283;51.330;12.374;2024-01-07T11:05:11;0.70;1.00
12438;DHT22;6283;51.330;12.374;2024-01-07T11:07:35;0.70;1.00
12438;DHT22;6283;51.330;12.374;2024-01-07T11:10:14;0.50;1.00
12438;DHT22;6283;51.330;12.374;2024-01-07T11:12:43;0.60;1.00
12438;DHT22;6283;51.330;12.374;2024-01-07T11:15:09;0.70;1.00
12438;DHT22;6283;51.330;12.374;2024-01-07T11:20:07;0.90;1.00
12438;DHT22;6283;51.330;12.374;2024-01-07T11:22:37;0.80;1.00
12438;DHT22;6283;51.330;12.374;2024-01-07T11:25:30;0.90;1.00
12438;DHT22;6283;51.330;12.374;2024-01-07T11:28:03;0.60;1.00
12438;DHT22;6283;51.330;12.374;2024-01-07T11:30:28;0.90;1.00
12438;DHT22;6283;51.330;12.374;2024-01-07T11:32:58;0.80;1.00
12438;DHT22;6283;51.330;12.374;2024-01-07T11:38:18;0.80;1.00
12438;DHT22;6283;51.330;12.374;2024-01-07T11:40:44;0.80;1.00
12438;DHT22;6283;51.330;12.374;2024-01-07T11:43:11;0.60;1.00
12438;DHT22;6283;51.330;12.374;2024-01-07T11:45:37;0.80;1.00
12438;DHT22;6283;51.330;12.374;2024-01-07T11:48:04;0.60;1.00
12438;DHT22;6283;51.330;12.374;2024-01-07T11:50:30;0.70;1.00
12438;DHT22;6283;51.330;12.374;2024-01-07T11:52:55;0.60;1.00
12438;DHT22;6283;51.330;12.374;2024-01-07T11:55:21;0.60;1.00
12438;DHT22;6283;51.330;12.374;2024-01-07T11:57:47;0.60;1.00
12438;DHT22;6283;51.330;12.374;2024-01-07T12:00:13;0.60;1.00
12438;DHT22;6283;51.330;12.374;2024-01-07T12:02:39;0.60;1.00
12438;DHT22;6283;51.330;12.374;2024-01-07T12:05:04;0.60;1.00
12438;DHT22;6283;51.330;12.374;2024-01-07T12:07:30;0.70;1.00
12438;DHT22;6283;51.330;12.374;2024-01-07T12:09:57;0.80;1.00
12438;DHT22;6283;51.330;12.374;2024-01-07T12:12:23;0.60;1.00
12438;DHT22;6283;51.330;12.374;2024-01-07T12:14:49;0.60;1.00
12438;DHT22;6283;51.330;12.374;2024-01-07T12:17:17;0.80;1.00
12438;DHT22;6283;51.330;12.374;2024-01-07T12:19:42;0.80;1.00
12438;DHT22;6283;51.330;12.374;2024-01-07T12:22:09;0.70;1.00
12438;DHT22;6283;51.330;12.374;2024-01-07T12:24:35;0.70;1.00
12438;DHT22;6283;51.330;12.374;2024-01-07T12:27:07;0.90;1.00
12438;DHT22;6283;51.330;12.374;2024-01-07T12:29:32;0.90;1.00
12438;DHT22;6283;51.330;12.374;2024-01-07T12:31:59;0.90;1.00
12438;DHT22;6283;51.330;12.374;2024-01-07T12:34:28;1.00;1.00
12438;DHT22;6283;51.330;12.374;2024-01-07T12:36:54;1.00;1.00
12438;DHT22;6283;51.330;12.374;2024-01-07T12:39:20;1.00;1.00
12438;DHT22;6283;51.330;12.374;2024-01-07T12:41:46;1.00;1.00
12438;DHT22;6283;51.330;12.374;2024-01-07T12:44:12;1.00;1.00
12438;DHT22;6283;51.330;12.374;2024-01-07T12:46:38;1.30;1.00
12438;DHT22;6283;51.330;12.374;2024-01-07T12:49:04;1.00;1.00
12438;DHT22;6283;51.330;12.374;2024-01-07T12:51:29;1.10;1.00
12438;DHT22;6283;51.330;12.374;2024-01-07T12:53:55;1.10;1.00
12438;DHT22;6283;51.330;12.374;2024-01-07T12:56:22;1.10;1.00
12438;DHT22;6283;51.330;12.374;2024-01-07T12:58:47;1.10;1.00
12438;DHT22;6283;51.330;12.374;2024-01-07T13:01:13;1.40;1.00
12438;DHT22;6283;51.330;12.374;2024-01-07T13:03:42;1.20;1.00
12438;DHT22;6283;51.330;12.374;2024-01-07T13:06:07;1.20;1.00
12438;DHT22;6283;51.330;12.374;2024-01-07T13:08:33;1.20;1.00
12438;DHT22;6283;51.330;12.374;2024-01-07T13:10:59;1.50;1.00
12438;DHT22;6283;51.330;12.374;2024-01-07T13:13:26;1.50;1.00
12438;DHT22;6283;51.330;12.374;2024-01-07T13:15:51;1.30;1.00
12438;DHT22;6283;51.330;12.374;2024-01-07T13:18:17;1.30;1.00
12438;DHT22;6283;51.330;12.374;2024-01-07T13:20:43;1.60;1.00
12438;DHT22;6283;51.330;12.374;2024-01-07T13:23:08;1.50;1.00
12438;DHT22;6283;51.330;12.374;2024-01-07T13:25:35;1.50;1.00
12438;DHT22;6283;51.330;12.374;2024-01-07T13:28:00;1.30;1.00
12438;DHT22;6283;51.330;12.374;2024-01-07T13:30:26;1.30;1.00
12438;DHT22;6283;51.330;12.374;2024-01-07T13:32:52;1.60;1.00
12438;DHT22;6283;51.330;12.374;2024-01-07T13:35:22;1.30;1.00
12438;DHT22;6283;51.330;12.374;2024-01-07T13:37:47;1.30;1.00
12438;DHT22;6283;51.330;12.374;2024-01-07T13:40:13;1.20;1.00
12438;DHT22;6283;51.330;12.374;2024-01-07T13:42:40;1.50;1.00
12438;DHT22;6283;51.330;12.374;2024-01-07T13:45:05;1.30;1.00
12438;DHT22;6283;51.330;12.374;2024-01-07T13:47:31;1.20;1.00
12438;DHT22;6283;51.330;12.374;2024-01-07T13:49:57;1.30;1.00
12438;DHT22;6283;51.330;12.374;2024-01-07T13:52:23;1.30;1.00
12438;DHT22;6283;51.330;12.374;2024-01-07T13:54:48;1.50;1.00
12438;DHT22;6283;51.330;12.374;2024-01-07T13:57:14;1.60;1.00
12438;DHT22;6283;51.330;12.374;2024-01-07T13:59:40;1.40;1.00
12438;DHT22;6283;51.330;12.374;2024-01-07T14:02:07;1.50;1.00
12438;DHT22;6283;51.330;12.374;2024-01-07T14:04:33;1.30;1.00
12438;DHT22;6283;51.330;12.374;2024-01-07T14:06:59;1.30;1.00
12438;DHT22;6283;51.330;12.374;2024-01-07T14:09:25;1.20;1.00
12438;DHT22;6283;51.330;12.374;2024-01-07T14:11:51;1.30;1.00
12438;DHT22;6283;51.330;12.374;2024-01-07T14:14:17;1.40;1.00
12438;DHT22;6283;51.330;12.374;2024-01-07T14:16:45;1.30;1.00
12438;DHT22;6283;51.330;12.374;2024-01-07T14:19:10;1.20;1.00
12438;DHT22;6283;51.330;12.374;2024-01-07T14:21:36;1.40;1.00
12438;DHT22;6283;51.330;12.374;2024-01-07T14:24:02;1.50;1.00
12438;DHT22;6283;51.330;12.374;2024-01-07T14:26:28;1.20;1.00
12438;DHT22;6283;51.330;12.374;2024-01-07T14:28:54;1.20;1.00
12438;DHT22;6283;51.330;12.374;2024-01-07T14:31:20;1.20;1.00
12438;DHT22;6283;51.330;12.374;2024-01-07T14:33:45;1.20;1.00
12438;DHT22;6283;51.330;12.374;2024-01-07T14:36:12;1.50;1.00
12438;DHT22;6283;51.330;12.374;2024-01-07T14:38:45;1.20;1.00
12438;DHT22;6283;51.330;12.374;2024-01-07T14:41:13;1.30;1.00
12438;DHT22;6283;51.330;12.374;2024-01-07T14:43:39;1.00;1.00
12438;DHT22;6283;51.330;12.374;2024-01-07T14:46:06;1.20;1.00
12438;DHT22;6283;51.330;12.374;2024-01-07T14:48:33;1.00;1.00
12438;DHT22;6283;51.330;12.374;2024-01-07T14:50:59;0.90;1.00
12438;DHT22;6283;51.330;12.374;2024-01-07T14:53:24;1.10;1.00
12438;DHT22;6283;51.330;12.374;2024-01-07T14:55:51;0.90;1.00
12438;DHT22;6283;51.330;12.374;2024-01-07T14:58:16;1.20;1.00
12438;DHT22;6283;51.330;12.374;2024-01-07T15:00:43;1.10;1.00
12438;DHT22;6283;51.330;12.374;2024-01-07T15:03:09;1.10;1.00
12438;DHT22;6283;51.330;12.374;2024-01-07T15:05:35;1.30;1.00
12438;DHT22;6283;51.330;12.374;2024-01-07T15:08:00;1.20;1.00
12438;DHT22;6283;51.330;12.374;2024-01-07T15:10:26;1.00;1.00
12438;DHT22;6283;51.330;12.374;2024-01-07T15:12:52;1.00;1.00
12438;DHT22;6283;51.330;12.374;2024-01-07T15:15:17;0.90;1.00
12438;DHT22;6283;51.330;12.374;2024-01-07T15:17:44;0.70;1.00
12438;DHT22;6283;51.330;12.374;2024-01-07T15:20:10;1.00;1.00
12438;DHT22;6283;51.330;12.374;2024-01-07T15:22:36;0.60;1.00
12438;DHT22;6283;51.330;12.374;2024-01-07T15:25:02;0.80;1.00
12438;DHT22;6283;51.330;12.374;2024-01-07T15:27:27;0.70;1.00
12438;DHT22;6283;51.330;12.374;2024-01-07T15:29:55;0.70;1.00
12438;DHT22;6283;51.330;12.374;2024-01-07T15:32:20;0.60;1.00
12438;DHT22;6283;51.330;12.374;2024-01-07T15:34:46;0.90;1.00
12438;DHT22;6283;51.330;12.374;2024-01-07T15:37:11;0.90;1.00
12438;DHT22;6283;51.330;12.374;2024-01-07T15:39:37;0.80;1.00
12438;DHT22;6283;51.330;12.374;2024-01-07T15:42:03;0.70;1.00
12438;DHT22;6283;51.330;12.374;2024-01-07T15:44:29;0.50;1.00
12438;DHT22;6283;51.330;12.374;2024-01-07T15:46:55;0.60;1.00
12438;DHT22;6283;51.330;12.374;2024-01-07T15:49:21;0.60;1.00
12438;DHT22;6283;51.330;12.374;2024-01-07T15:51:46;0.70;1.00
12438;DHT22;6283;51.330;12.374;2024-01-07T15:54:12;0.80;1.00
12438;DHT22;6283;51.330;12.374;2024-01-07T15:56:38;0.70;1.00
12438;DHT22;6283;51.330;12.374;2024-01-07T15:59:03;0.70;1.00
12438;DHT22;6283;51.330;12.374;2024-01-07T16:01:30;0.80;1.00
12438;DHT22;6283;51.330;12.374;2024-01-07T16:03:56;0.90;1.00